createdAt,value
2022-10-25T12:21:46.629Z,30.30
2022-10-25T12:24:23.943Z,30.38
2022-10-25T12:26:58.218Z,30.40
2022-10-25T12:29:37.653Z,30.28
2022-10-25T12:32:18.368Z,29.93
2022-10-25T12:34:55.116Z,29.84
2022-10-25T12:37:39.659Z,29.92
2022-10-25T12:40:20.909Z,29.96
2022-10-25T12:42:57.564Z,29.96
2022-10-25T12:45:44.967Z,29.90
2022-10-25T12:48:34.217Z,29.93
2022-10-25T12:51:23.980Z,29.90
2022-10-25T12:54:28.396Z,29.81
2022-10-25T12:57:12.772Z,29.86
2022-10-25T13:00:02.057Z,29.85
2022-10-25T13:03:20.280Z,29.73
2022-10-25T13:06:23.389Z,29.64
2022-10-25T13:08:56.918Z,29.59
2022-10-25T13:11:40.768Z,29.49
2022-10-25T13:14:30.026Z,29.46
2022-10-25T13:17:53.174Z,29.52
2022-10-25T13:20:50.180Z,29.53
2022-10-25T13:24:01.732Z,29.27
2022-10-25T13:26:58.090Z,29.29
2022-10-25T13:30:03.203Z,29.34
2022-10-25T13:32:37.263Z,29.36
2022-10-25T13:35:57.446Z,29.32
2022-10-25T13:38:36.565Z,29.20
2022-10-25T13:41:18.376Z,29.10
2022-10-25T13:44:04.441Z,29.15
2022-10-25T13:46:40.991Z,29.10
2022-10-25T13:49:39.619Z,29.02
2022-10-25T13:52:26.811Z,28.93
2022-10-25T13:55:00.154Z,28.95
2022-10-25T13:57:53.574Z,28.92
2022-10-25T14:00:37.275Z,28.87
2022-10-25T14:03:49.936Z,28.71
2022-10-25T14:06:31.939Z,28.64
2022-10-25T14:09:23.477Z,28.71
2022-10-25T14:11:58.676Z,28.65
2022-10-25T14:14:33.161Z,28.63
2022-10-25T14:17:18.501Z,28.90
2022-10-25T14:19:56.280Z,28.81
2022-10-25T14:22:34.568Z,28.71
2022-10-25T14:25:10.972Z,28.62
2022-10-25T14:27:43.201Z,28.67
2022-10-25T14:30:34.928Z,28.70
2022-10-25T14:33:23.763Z,28.81
2022-10-25T14:35:59.973Z,28.72
2022-10-25T14:38:32.770Z,28.84
2022-10-25T14:41:08.126Z,28.70
2022-10-25T14:43:42.185Z,28.91
2022-10-25T14:46:18.928Z,29.41
2022-10-25T14:48:56.507Z,28.82
2022-10-25T14:51:32.510Z,28.69
2022-10-25T14:54:07.860Z,28.60
2022-10-25T14:56:44.563Z,28.65
2022-10-25T14:59:27.979Z,28.60
2022-10-25T15:02:03.638Z,28.54
2022-10-25T15:04:42.330Z,28.46
2022-10-25T15:07:25.493Z,28.48
2022-10-25T15:09:58.993Z,28.42
2022-10-25T15:12:33.370Z,28.19
2022-10-25T15:15:35.806Z,28.35
2022-10-25T15:18:08.470Z,28.45
2022-10-25T15:20:42.743Z,28.44
2022-10-25T15:23:20.093Z,28.43
2022-10-25T15:25:52.333Z,28.44
2022-10-25T15:28:24.709Z,28.43
2022-10-25T15:31:09.873Z,28.42
2022-10-25T15:33:44.294Z,28.36
2022-10-25T15:36:25.955Z,28.27
2022-10-25T15:39:12.748Z,28.28
2022-10-25T15:41:48.194Z,28.28
2022-10-25T15:44:21.070Z,28.29
2022-10-25T15:46:54.059Z,28.31
2022-10-25T15:49:26.690Z,28.31
2022-10-25T15:52:03.115Z,28.33
2022-10-25T15:54:36.146Z,28.28
2022-10-25T15:57:08.475Z,28.02
2022-10-25T15:59:41.231Z,27.68
2022-10-25T16:02:22.197Z,27.65
2022-10-25T16:04:55.731Z,27.57
2022-10-25T16:07:29.951Z,27.57
2022-10-25T16:10:02.502Z,27.57
2022-10-25T16:12:36.540Z,27.56
2022-10-25T16:15:10.841Z,27.48
2022-10-25T16:17:42.955Z,27.54
2022-10-25T16:20:20.524Z,27.67
2022-10-25T16:22:55.529Z,27.61
2022-10-25T16:25:32.836Z,27.53
2022-10-25T16:28:05.919Z,27.47
2022-10-25T16:30:41.708Z,27.41
2022-10-25T16:33:15.520Z,27.43
2022-10-25T16:35:47.830Z,27.33
2022-10-25T16:38:21.369Z,27.36
2022-10-25T16:40:54.018Z,27.39
2022-10-25T16:43:26.214Z,27.32
2022-10-25T16:45:58.756Z,27.27
2022-10-25T16:48:31.178Z,27.31
2022-10-25T16:51:03.656Z,27.33
2022-10-25T16:53:37.458Z,27.30
2022-10-25T16:56:12.838Z,27.28
2022-10-25T16:58:45.229Z,27.18
2022-10-25T17:01:23.266Z,27.20
2022-10-25T17:03:56.118Z,27.17
2022-10-25T17:06:40.804Z,27.11
2022-10-25T17:09:15.363Z,27.07
2022-10-25T17:11:48.169Z,27.09
2022-10-25T17:14:20.517Z,27.08
2022-10-25T17:16:52.830Z,27.18
2022-10-25T17:19:26.308Z,27.23
2022-10-25T17:21:59.508Z,27.16
2022-10-25T17:24:37.420Z,27.25
2022-10-25T17:27:10.278Z,27.14
2022-10-25T17:29:42.652Z,27.12
2022-10-25T17:32:15.207Z,27.14
2022-10-25T17:34:47.474Z,27.08
2022-10-25T17:37:19.367Z,27.10
2022-10-25T17:39:53.476Z,27.13
2022-10-25T17:42:26.392Z,26.98
2022-10-25T17:44:58.383Z,26.97
2022-10-25T17:47:31.311Z,26.98
2022-10-25T17:50:03.467Z,26.97
2022-10-25T17:52:35.857Z,26.95
2022-10-25T17:55:11.530Z,26.83
2022-10-25T17:57:45.427Z,26.80
2022-10-25T18:00:19.269Z,26.70
2022-10-25T18:02:53.043Z,26.75
2022-10-25T18:05:25.842Z,26.88
2022-10-25T18:07:58.323Z,26.90
